sensor_id;sensor_type;location;lat;lon;timestamp;P1;durP1;ratioP1;P2;durP2;ratioP2
31808;SDS011;18379;48.208;-1.518;2024-03-17T00:04:57;27.80;;;22.73;;
31808;SDS011;18379;48.208;-1.518;2024-03-17T00:09:58;30.30;;;22.17;;
31808;SDS011;18379;48.208;-1.518;2024-03-17T00:14:58;27.27;;;22.03;;
31808;SDS011;18379;48.208;-1.518;2024-03-17T00:19:59;31.17;;;22.20;;
31808;SDS011;18379;48.208;-1.518;2024-03-17T00:25:04;31.20;;;21.47;;
31808;SDS011;18379;48.208;-1.518;2024-03-17T00:30:06;30.87;;;21.40;;
31808;SDS011;18379;48.208;-1.518;2024-03-17T00:35:13;27.00;;;21.47;;
31808;SDS011;18379;48.208;-1.518;2024-03-17T00:40:20;26.77;;;21.60;;
31808;SDS011;18379;48.208;-1.518;2024-03-17T00:45:21;27.87;;;22.37;;
31808;SDS011;18379;48.208;-1.518;2024-03-17T00:50:21;24.40;;;21.67;;
31808;SDS011;18379;48.208;-1.518;2024-03-17T00:55:22;25.83;;;21.37;;
31808;SDS011;18379;48.208;-1.518;2024-03-17T01:00:22;26.37;;;23.17;;
31808;SDS011;18379;48.208;-1.518;2024-03-17T01:05:23;23.87;;;21.40;;
31808;SDS011;18379;48.208;-1.518;2024-03-17T01:10:24;28.93;;;21.47;;
31808;SDS011;18379;48.208;-1.518;2024-03-17T01:15:24;29.60;;;21.17;;
31808;SDS011;18379;48.208;-1.518;2024-03-17T01:20:25;25.17;;;21.17;;
31808;SDS011;18379;48.208;-1.518;2024-03-17T01:25:26;25.10;;;21.67;;
31808;SDS011;18379;48.208;-1.518;2024-03-17T01:30:27;23.80;;;21.20;;
31808;SDS011;18379;48.208;-1.518;2024-03-17T01:35:28;28.17;;;21.73;;
31808;SDS011;18379;48.208;-1.518;2024-03-17T01:40:29;28.93;;;22.00;;
31808;SDS011;18379;48.208;-1.518;2024-03-17T01:45:30;26.43;;;21.60;;
31808;SDS011;18379;48.208;-1.518;2024-03-17T01:50:33;31.23;;;21.50;;
31808;SDS011;18379;48.208;-1.518;2024-03-17T01:55:37;24.40;;;21.13;;
31808;SDS011;18379;48.208;-1.518;2024-03-17T02:00:39;26.43;;;21.43;;
31808;SDS011;18379;48.208;-1.518;2024-03-17T02:05:40;24.73;;;21.60;;
31808;SDS011;18379;48.208;-1.518;2024-03-17T02:10:41;27.83;;;21.40;;
31808;SDS011;18379;48.208;-1.518;2024-03-17T02:15:41;24.37;;;21.53;;
31808;SDS011;18379;48.208;-1.518;2024-03-17T02:20:42;25.87;;;20.43;;
31808;SDS011;18379;48.208;-1.518;2024-03-17T02:25:55;25.10;;;21.30;;
31808;SDS011;18379;48.208;-1.518;2024-03-17T02:30:56;23.63;;;21.13;;
31808;SDS011;18379;48.208;-1.518;2024-03-17T02:35:56;25.60;;;21.47;;
31808;SDS011;18379;48.208;-1.518;2024-03-17T02:40:57;26.47;;;21.50;;
31808;SDS011;18379;48.208;-1.518;2024-03-17T02:45:58;28.23;;;21.07;;
31808;SDS011;18379;48.208;-1.518;2024-03-17T02:50:59;23.27;;;20.87;;
31808;SDS011;18379;48.208;-1.518;2024-03-17T02:55:59;26.60;;;20.70;;
31808;SDS011;18379;48.208;-1.518;2024-03-17T03:01:00;23.30;;;21.17;;
31808;SDS011;18379;48.208;-1.518;2024-03-17T03:06:02;25.03;;;20.77;;
31808;SDS011;18379;48.208;-1.518;2024-03-17T03:11:05;22.73;;;20.67;;
31808;SDS011;18379;48.208;-1.518;2024-03-17T03:16:07;23.93;;;20.83;;
31808;SDS011;18379;48.208;-1.518;2024-03-17T03:21:11;24.07;;;20.80;;
31808;SDS011;18379;48.208;-1.518;2024-03-17T03:26:13;24.13;;;20.80;;
31808;SDS011;18379;48.208;-1.518;2024-03-17T03:31:13;22.93;;;20.53;;
31808;SDS011;18379;48.208;-1.518;2024-03-17T03:36:15;24.37;;;20.93;;
31808;SDS011;18379;48.208;-1.518;2024-03-17T03:41:16;22.80;;;20.77;;
31808;SDS011;18379;48.208;-1.518;2024-03-17T03:46:17;24.30;;;21.87;;
31808;SDS011;18379;48.208;-1.518;2024-03-17T03:51:18;23.50;;;21.17;;
31808;SDS011;18379;48.208;-1.518;2024-03-17T03:56:18;23.47;;;21.20;;
31808;SDS011;18379;48.208;-1.518;2024-03-17T04:01:20;24.40;;;20.60;;
31808;SDS011;18379;48.208;-1.518;2024-03-17T04:06:22;23.13;;;21.00;;
31808;SDS011;18379;48.208;-1.518;2024-03-17T04:11:23;23.30;;;20.97;;
31808;SDS011;18379;48.208;-1.518;2024-03-17T04:16:23;23.13;;;20.40;;
31808;SDS011;18379;48.208;-1.518;2024-03-17T04:21:25;22.77;;;20.43;;
31808;SDS011;18379;48.208;-1.518;2024-03-17T04:26:26;23.07;;;20.67;;
31808;SDS011;18379;48.208;-1.518;2024-03-17T04:31:27;23.40;;;21.07;;
31808;SDS011;18379;48.208;-1.518;2024-03-17T04:36:27;22.17;;;20.17;;
31808;SDS011;18379;48.208;-1.518;2024-03-17T04:41:28;23.43;;;21.00;;
31808;SDS011;18379;48.208;-1.518;2024-03-17T04:46:29;22.03;;;20.07;;
31808;SDS011;18379;48.208;-1.518;2024-03-17T04:51:29;22.73;;;20.80;;
31808;SDS011;18379;48.208;-1.518;2024-03-17T04:56:33;23.43;;;20.83;;
31808;SDS011;18379;48.208;-1.518;2024-03-17T05:01:33;23.57;;;21.37;;
31808;SDS011;18379;48.208;-1.518;2024-03-17T05:06:36;23.37;;;21.10;;
31808;SDS011;18379;48.208;-1.518;2024-03-17T05:11:37;23.43;;;20.50;;
31808;SDS011;18379;48.208;-1.518;2024-03-17T05:16:38;22.77;;;20.80;;
31808;SDS011;18379;48.208;-1.518;2024-03-17T05:21:38;23.27;;;20.97;;
31808;SDS011;18379;48.208;-1.518;2024-03-17T05:26:39;22.93;;;20.80;;
31808;SDS011;18379;48.208;-1.518;2024-03-17T05:31:42;23.03;;;20.80;;
31808;SDS011;18379;48.208;-1.518;2024-03-17T05:36:43;22.93;;;20.57;;
31808;SDS011;18379;48.208;-1.518;2024-03-17T05:41:44;22.07;;;20.37;;
31808;SDS011;18379;48.208;-1.518;2024-03-17T05:46:48;22.67;;;20.83;;
31808;SDS011;18379;48.208;-1.518;2024-03-17T05:51:51;21.30;;;19.73;;
31808;SDS011;18379;48.208;-1.518;2024-03-17T05:56:52;21.77;;;19.97;;
31808;SDS011;18379;48.208;-1.518;2024-03-17T06:01:53;23.50;;;21.57;;
31808;SDS011;18379;48.208;-1.518;2024-03-17T06:06:53;22.53;;;20.80;;
31808;SDS011;18379;48.208;-1.518;2024-03-17T06:11:54;21.97;;;20.30;;
31808;SDS011;18379;48.208;-1.518;2024-03-17T06:16:54;22.30;;;20.73;;
31808;SDS011;18379;48.208;-1.518;2024-03-17T06:21:55;22.87;;;21.10;;
31808;SDS011;18379;48.208;-1.518;2024-03-17T06:26:56;22.60;;;20.90;;
31808;SDS011;18379;48.208;-1.518;2024-03-17T06:31:57;21.87;;;20.37;;
31808;SDS011;18379;48.208;-1.518;2024-03-17T06:36:57;22.53;;;20.80;;
31808;SDS011;18379;48.208;-1.518;2024-03-17T06:42:00;22.60;;;20.83;;
31808;SDS011;18379;48.208;-1.518;2024-03-17T06:47:00;23.30;;;21.60;;
31808;SDS011;18379;48.208;-1.518;2024-03-17T06:52:02;22.03;;;20.40;;
31808;SDS011;18379;48.208;-1.518;2024-03-17T06:57:02;21.67;;;19.97;;
31808;SDS011;18379;48.208;-1.518;2024-03-17T07:02:03;22.67;;;20.67;;
31808;SDS011;18379;48.208;-1.518;2024-03-17T07:07:04;22.10;;;20.47;;
31808;SDS011;18379;48.208;-1.518;2024-03-17T07:12:08;22.30;;;20.67;;
31808;SDS011;18379;48.208;-1.518;2024-03-17T07:17:10;21.83;;;20.30;;
31808;SDS011;18379;48.208;-1.518;2024-03-17T07:22:11;21.23;;;20.03;;
31808;SDS011;18379;48.208;-1.518;2024-03-17T07:27:11;21.80;;;20.20;;
31808;SDS011;18379;48.208;-1.518;2024-03-17T07:32:14;21.67;;;20.20;;
31808;SDS011;18379;48.208;-1.518;2024-03-17T07:37:15;20.73;;;19.57;;
31808;SDS011;18379;48.208;-1.518;2024-03-17T07:42:16;20.90;;;19.63;;
31808;SDS011;18379;48.208;-1.518;2024-03-17T07:47:16;20.30;;;19.13;;
31808;SDS011;18379;48.208;-1.518;2024-03-17T07:52:17;21.03;;;19.83;;
31808;SDS011;18379;48.208;-1.518;2024-03-17T07:57:18;20.17;;;19.07;;
31808;SDS011;18379;48.208;-1.518;2024-03-17T08:02:18;20.70;;;19.47;;
31808;SDS011;18379;48.208;-1.518;2024-03-17T08:07:19;20.33;;;19.23;;
31808;SDS011;18379;48.208;-1.518;2024-03-17T08:12:20;21.00;;;19.80;;
31808;SDS011;18379;48.208;-1.518;2024-03-17T08:17:20;20.40;;;19.20;;
31808;SDS011;18379;48.208;-1.518;2024-03-17T08:22:21;20.40;;;19.10;;
31808;SDS011;18379;48.208;-1.518;2024-03-17T08:27:22;20.93;;;19.77;;
31808;SDS011;18379;48.208;-1.518;2024-03-17T08:32:23;21.10;;;19.90;;
31808;SDS011;18379;48.208;-1.518;2024-03-17T08:37:24;22.00;;;20.70;;
31808;SDS011;18379;48.208;-1.518;2024-03-17T08:42:25;20.53;;;19.33;;
31808;SDS011;18379;48.208;-1.518;2024-03-17T08:47:26;21.60;;;20.40;;
31808;SDS011;18379;48.208;-1.518;2024-03-17T08:52:26;21.93;;;20.73;;
31808;SDS011;18379;48.208;-1.518;2024-03-17T08:57:27;21.30;;;20.20;;
31808;SDS011;18379;48.208;-1.518;2024-03-17T09:02:28;21.67;;;20.27;;
31808;SDS011;18379;48.208;-1.518;2024-03-17T09:07:28;20.83;;;19.73;;
31808;SDS011;18379;48.208;-1.518;2024-03-17T09:12:29;20.93;;;19.83;;
31808;SDS011;18379;48.208;-1.518;2024-03-17T09:17:30;20.90;;;19.70;;
31808;SDS011;18379;48.208;-1.518;2024-03-17T09:22:31;21.20;;;20.10;;
31808;SDS011;18379;48.208;-1.518;2024-03-17T09:27:31;21.40;;;20.20;;
31808;SDS011;18379;48.208;-1.518;2024-03-17T09:32:32;21.47;;;20.17;;
31808;SDS011;18379;48.208;-1.518;2024-03-17T09:37:33;21.20;;;20.10;;
31808;SDS011;18379;48.208;-1.518;2024-03-17T09:42:33;22.00;;;20.80;;
31808;SDS011;18379;48.208;-1.518;2024-03-17T09:47:34;22.17;;;20.90;;
31808;SDS011;18379;48.208;-1.518;2024-03-17T09:52:36;21.03;;;19.93;;
31808;SDS011;18379;48.208;-1.518;2024-03-17T09:57:39;21.47;;;20.27;;
31808;SDS011;18379;48.208;-1.518;2024-03-17T10:02:44;21.50;;;20.40;;
31808;SDS011;18379;48.208;-1.518;2024-03-17T10:07:45;21.57;;;20.37;;
31808;SDS011;18379;48.208;-1.518;2024-03-17T10:12:49;22.80;;;21.50;;
31808;SDS011;18379;48.208;-1.518;2024-03-17T10:17:51;23.20;;;21.70;;
31808;SDS011;18379;48.208;-1.518;2024-03-17T10:23:13;21.80;;;20.60;;
31808;SDS011;18379;48.208;-1.518;2024-03-17T10:28:15;21.87;;;20.67;;
31808;SDS011;18379;48.208;-1.518;2024-03-17T10:33:23;21.23;;;20.17;;
31808;SDS011;18379;48.208;-1.518;2024-03-17T10:38:25;21.77;;;20.60;;
31808;SDS011;18379;48.208;-1.518;2024-03-17T10:43:27;22.30;;;21.10;;
31808;SDS011;18379;48.208;-1.518;2024-03-17T10:48:30;22.87;;;21.47;;
31808;SDS011;18379;48.208;-1.518;2024-03-17T10:53:34;22.27;;;20.93;;
31808;SDS011;18379;48.208;-1.518;2024-03-17T10:58:35;22.60;;;21.40;;
31808;SDS011;18379;48.208;-1.518;2024-03-17T11:03:38;22.87;;;21.57;;
31808;SDS011;18379;48.208;-1.518;2024-03-17T11:08:40;24.63;;;23.13;;
31808;SDS011;18379;48.208;-1.518;2024-03-17T11:13:42;24.33;;;22.97;;
31808;SDS011;18379;48.208;-1.518;2024-03-17T11:18:43;23.80;;;22.40;;
31808;SDS011;18379;48.208;-1.518;2024-03-17T11:23:45;23.47;;;22.07;;
31808;SDS011;18379;48.208;-1.518;2024-03-17T11:28:57;23.70;;;22.30;;
31808;SDS011;18379;48.208;-1.518;2024-03-17T11:33:59;24.10;;;22.80;;
31808;SDS011;18379;48.208;-1.518;2024-03-17T11:39:05;23.43;;;22.23;;
31808;SDS011;18379;48.208;-1.518;2024-03-17T11:49:28;23.80;;;22.60;;
31808;SDS011;18379;48.208;-1.518;2024-03-17T11:54:34;23.63;;;22.33;;
31808;SDS011;18379;48.208;-1.518;2024-03-17T11:59:35;23.77;;;22.53;;
31808;SDS011;18379;48.208;-1.518;2024-03-17T12:04:39;24.37;;;23.07;;
31808;SDS011;18379;48.208;-1.518;2024-03-17T12:09:46;23.87;;;22.47;;
31808;SDS011;18379;48.208;-1.518;2024-03-17T12:14:48;23.40;;;22.20;;
31808;SDS011;18379;48.208;-1.518;2024-03-17T12:19:50;23.23;;;22.13;;
31808;SDS011;18379;48.208;-1.518;2024-03-17T12:24:52;23.80;;;22.50;;
31808;SDS011;18379;48.208;-1.518;2024-03-17T12:29:54;24.30;;;22.90;;
31808;SDS011;18379;48.208;-1.518;2024-03-17T12:34:56;23.30;;;22.07;;
31808;SDS011;18379;48.208;-1.518;2024-03-17T12:39:57;24.33;;;23.03;;
31808;SDS011;18379;48.208;-1.518;2024-03-17T12:45:00;24.40;;;23.10;;
31808;SDS011;18379;48.208;-1.518;2024-03-17T12:50:10;24.40;;;23.00;;
31808;SDS011;18379;48.208;-1.518;2024-03-17T12:55:17;24.30;;;22.80;;
31808;SDS011;18379;48.208;-1.518;2024-03-17T13:00:38;23.77;;;22.47;;
31808;SDS011;18379;48.208;-1.518;2024-03-17T13:05:38;23.87;;;22.57;;
31808;SDS011;18379;48.208;-1.518;2024-03-17T13:10:46;23.80;;;22.50;;
31808;SDS011;18379;48.208;-1.518;2024-03-17T13:15:47;24.40;;;23.10;;
31808;SDS011;18379;48.208;-1.518;2024-03-17T13:20:48;24.03;;;22.73;;
31808;SDS011;18379;48.208;-1.518;2024-03-17T13:25:58;24.53;;;23.00;;
31808;SDS011;18379;48.208;-1.518;2024-03-17T13:30:58;23.67;;;22.37;;
31808;SDS011;18379;48.208;-1.518;2024-03-17T13:35:59;24.30;;;22.90;;
31808;SDS011;18379;48.208;-1.518;2024-03-17T13:41:00;24.00;;;22.63;;
31808;SDS011;18379;48.208;-1.518;2024-03-17T13:46:04;23.93;;;22.43;;
31808;SDS011;18379;48.208;-1.518;2024-03-17T13:51:05;24.30;;;22.93;;
31808;SDS011;18379;48.208;-1.518;2024-03-17T13:56:08;24.67;;;23.10;;
31808;SDS011;18379;48.208;-1.518;2024-03-17T14:01:10;23.93;;;22.53;;
31808;SDS011;18379;48.208;-1.518;2024-03-17T14:06:11;23.87;;;22.57;;
31808;SDS011;18379;48.208;-1.518;2024-03-17T14:11:12;24.23;;;22.80;;
31808;SDS011;18379;48.208;-1.518;2024-03-17T14:16:13;23.93;;;22.47;;
31808;SDS011;18379;48.208;-1.518;2024-03-17T14:21:14;24.27;;;22.87;;
31808;SDS011;18379;48.208;-1.518;2024-03-17T14:26:14;23.87;;;22.37;;
31808;SDS011;18379;48.208;-1.518;2024-03-17T14:31:16;25.20;;;23.57;;
31808;SDS011;18379;48.208;-1.518;2024-03-17T14:36:17;24.63;;;22.97;;
31808;SDS011;18379;48.208;-1.518;2024-03-17T14:41:19;24.10;;;22.60;;
31808;SDS011;18379;48.208;-1.518;2024-03-17T14:46:20;24.37;;;23.07;;
31808;SDS011;18379;48.208;-1.518;2024-03-17T14:51:20;23.93;;;22.50;;
31808;SDS011;18379;48.208;-1.518;2024-03-17T14:56:21;24.37;;;22.97;;
31808;SDS011;18379;48.208;-1.518;2024-03-17T15:01:22;23.77;;;22.40;;
31808;SDS011;18379;48.208;-1.518;2024-03-17T15:06:23;24.47;;;23.17;;
31808;SDS011;18379;48.208;-1.518;2024-03-17T15:11:24;24.40;;;22.93;;
31808;SDS011;18379;48.208;-1.518;2024-03-17T15:16:25;23.03;;;21.83;;
31808;SDS011;18379;48.208;-1.518;2024-03-17T15:21:26;23.33;;;22.03;;
31808;SDS011;18379;48.208;-1.518;2024-03-17T15:26:26;25.23;;;23.83;;
31808;SDS011;18379;48.208;-1.518;2024-03-17T15:31:27;24.00;;;22.70;;
31808;SDS011;18379;48.208;-1.518;2024-03-17T15:36:28;24.03;;;22.73;;
31808;SDS011;18379;48.208;-1.518;2024-03-17T15:41:30;23.93;;;22.53;;
31808;SDS011;18379;48.208;-1.518;2024-03-17T15:46:33;23.87;;;22.57;;
31808;SDS011;18379;48.208;-1.518;2024-03-17T15:51:34;24.60;;;23.20;;
31808;SDS011;18379;48.208;-1.518;2024-03-17T15:56:35;23.97;;;22.57;;
31808;SDS011;18379;48.208;-1.518;2024-03-17T16:01:35;23.57;;;22.37;;
31808;SDS011;18379;48.208;-1.518;2024-03-17T16:06:36;23.40;;;22.20;;
31808;SDS011;18379;48.208;-1.518;2024-03-17T16:11:39;24.77;;;23.27;;
31808;SDS011;18379;48.208;-1.518;2024-03-17T16:16:40;23.40;;;22.20;;
31808;SDS011;18379;48.208;-1.518;2024-03-17T16:21:42;23.27;;;21.87;;
31808;SDS011;18379;48.208;-1.518;2024-03-17T16:26:44;23.67;;;22.37;;
31808;SDS011;18379;48.208;-1.518;2024-03-17T16:31:47;23.40;;;21.90;;
31808;SDS011;18379;48.208;-1.518;2024-03-17T16:36:50;25.67;;;23.90;;
31808;SDS011;18379;48.208;-1.518;2024-03-17T16:41:51;23.47;;;22.17;;
31808;SDS011;18379;48.208;-1.518;2024-03-17T16:46:59;23.70;;;22.40;;
31808;SDS011;18379;48.208;-1.518;2024-03-17T16:52:05;23.10;;;21.80;;
31808;SDS011;18379;48.208;-1.518;2024-03-17T16:57:06;23.00;;;21.70;;
31808;SDS011;18379;48.208;-1.518;2024-03-17T17:02:14;25.33;;;23.80;;
31808;SDS011;18379;48.208;-1.518;2024-03-17T17:07:16;24.77;;;23.07;;
31808;SDS011;18379;48.208;-1.518;2024-03-17T17:12:16;24.27;;;22.87;;
31808;SDS011;18379;48.208;-1.518;2024-03-17T17:17:17;23.30;;;22.00;;
31808;SDS011;18379;48.208;-1.518;2024-03-17T17:22:19;23.57;;;22.17;;
31808;SDS011;18379;48.208;-1.518;2024-03-17T17:27:21;24.13;;;22.73;;
31808;SDS011;18379;48.208;-1.518;2024-03-17T17:32:22;23.80;;;22.40;;
31808;SDS011;18379;48.208;-1.518;2024-03-17T17:37:23;24.67;;;23.17;;
31808;SDS011;18379;48.208;-1.518;2024-03-17T17:42:23;25.13;;;23.43;;
31808;SDS011;18379;48.208;-1.518;2024-03-17T17:47:24;25.60;;;23.93;;
31808;SDS011;18379;48.208;-1.518;2024-03-17T17:52:25;25.43;;;23.83;;
31808;SDS011;18379;48.208;-1.518;2024-03-17T17:57:25;26.00;;;24.20;;
31808;SDS011;18379;48.208;-1.518;2024-03-17T18:02:26;24.93;;;23.43;;
31808;SDS011;18379;48.208;-1.518;2024-03-17T18:07:29;26.27;;;24.50;;
31808;SDS011;18379;48.208;-1.518;2024-03-17T18:12:30;25.67;;;23.70;;
31808;SDS011;18379;48.208;-1.518;2024-03-17T18:17:30;25.20;;;23.37;;
31808;SDS011;18379;48.208;-1.518;2024-03-17T18:22:31;27.80;;;25.57;;
31808;SDS011;18379;48.208;-1.518;2024-03-17T18:27:32;27.60;;;25.70;;
31808;SDS011;18379;48.208;-1.518;2024-03-17T18:32:33;26.17;;;24.47;;
31808;SDS011;18379;48.208;-1.518;2024-03-17T18:37:33;28.30;;;26.20;;
31808;SDS011;18379;48.208;-1.518;2024-03-17T18:42:36;26.80;;;25.00;;
31808;SDS011;18379;48.208;-1.518;2024-03-17T18:47:38;27.30;;;25.30;;
31808;SDS011;18379;48.208;-1.518;2024-03-17T18:52:38;27.70;;;25.50;;
31808;SDS011;18379;48.208;-1.518;2024-03-17T18:57:39;24.90;;;23.20;;
31808;SDS011;18379;48.208;-1.518;2024-03-17T19:02:40;25.70;;;23.80;;
31808;SDS011;18379;48.208;-1.518;2024-03-17T19:07:41;31.97;;;28.97;;
31808;SDS011;18379;48.208;-1.518;2024-03-17T19:12:41;28.93;;;26.53;;
31808;SDS011;18379;48.208;-1.518;2024-03-17T19:17:42;29.97;;;27.57;;
31808;SDS011;18379;48.208;-1.518;2024-03-17T19:22:43;36.00;;;32.50;;
31808;SDS011;18379;48.208;-1.518;2024-03-17T19:27:43;31.43;;;28.73;;
31808;SDS011;18379;48.208;-1.518;2024-03-17T19:32:44;32.33;;;29.70;;
31808;SDS011;18379;48.208;-1.518;2024-03-17T19:37:46;26.80;;;24.93;;
31808;SDS011;18379;48.208;-1.518;2024-03-17T19:42:49;30.27;;;27.83;;
31808;SDS011;18379;48.208;-1.518;2024-03-17T19:47:50;27.73;;;25.63;;
31808;SDS011;18379;48.208;-1.518;2024-03-17T19:52:51;30.10;;;27.63;;
31808;SDS011;18379;48.208;-1.518;2024-03-17T19:57:52;26.57;;;24.67;;
31808;SDS011;18379;48.208;-1.518;2024-03-17T20:02:52;33.00;;;29.70;;
31808;SDS011;18379;48.208;-1.518;2024-03-17T20:07:54;32.60;;;29.53;;
31808;SDS011;18379;48.208;-1.518;2024-03-17T20:12:54;28.33;;;25.93;;
31808;SDS011;18379;48.208;-1.518;2024-03-17T20:17:55;27.03;;;24.90;;
31808;SDS011;18379;48.208;-1.518;2024-03-17T20:22:55;26.97;;;24.80;;
31808;SDS011;18379;48.208;-1.518;2024-03-17T20:27:56;29.03;;;26.50;;
31808;SDS011;18379;48.208;-1.518;2024-03-17T20:32:57;27.93;;;25.70;;
31808;SDS011;18379;48.208;-1.518;2024-03-17T20:38:00;25.37;;;23.60;;
31808;SDS011;18379;48.208;-1.518;2024-03-17T20:43:01;24.50;;;22.83;;
31808;SDS011;18379;48.208;-1.518;2024-03-17T20:48:02;26.43;;;24.63;;
31808;SDS011;18379;48.208;-1.518;2024-03-17T20:53:03;23.77;;;22.23;;
31808;SDS011;18379;48.208;-1.518;2024-03-17T20:58:04;24.77;;;23.17;;
31808;SDS011;18379;48.208;-1.518;2024-03-17T21:03:04;25.40;;;23.57;;
31808;SDS011;18379;48.208;-1.518;2024-03-17T21:08:05;22.97;;;21.57;;
31808;SDS011;18379;48.208;-1.518;2024-03-17T21:13:08;22.80;;;21.50;;
31808;SDS011;18379;48.208;-1.518;2024-03-17T21:18:09;23.67;;;22.17;;
31808;SDS011;18379;48.208;-1.518;2024-03-17T21:23:09;25.37;;;23.57;;
31808;SDS011;18379;48.208;-1.518;2024-03-17T21:28:10;22.60;;;21.20;;
31808;SDS011;18379;48.208;-1.518;2024-03-17T21:33:10;22.50;;;21.20;;
31808;SDS011;18379;48.208;-1.518;2024-03-17T21:38:13;22.70;;;21.30;;
31808;SDS011;18379;48.208;-1.518;2024-03-17T21:43:15;23.87;;;22.17;;
31808;SDS011;18379;48.208;-1.518;2024-03-17T21:48:16;22.20;;;20.93;;
31808;SDS011;18379;48.208;-1.518;2024-03-17T21:53:17;22.17;;;20.97;;
31808;SDS011;18379;48.208;-1.518;2024-03-17T21:58:17;24.63;;;23.13;;
31808;SDS011;18379;48.208;-1.518;2024-03-17T22:03:18;22.37;;;21.10;;
31808;SDS011;18379;48.208;-1.518;2024-03-17T22:08:22;21.77;;;20.47;;
31808;SDS011;18379;48.208;-1.518;2024-03-17T22:13:26;21.63;;;20.43;;
31808;SDS011;18379;48.208;-1.518;2024-03-17T22:18:28;22.20;;;21.00;;
31808;SDS011;18379;48.208;-1.518;2024-03-17T22:23:29;21.67;;;20.47;;
31808;SDS011;18379;48.208;-1.518;2024-03-17T22:28:30;22.43;;;21.07;;
31808;SDS011;18379;48.208;-1.518;2024-03-17T22:33:32;22.43;;;21.13;;
31808;SDS011;18379;48.208;-1.518;2024-03-17T22:38:34;21.53;;;20.33;;
31808;SDS011;18379;48.208;-1.518;2024-03-17T22:43:37;23.00;;;21.60;;
31808;SDS011;18379;48.208;-1.518;2024-03-17T22:48:40;22.27;;;20.97;;
31808;SDS011;18379;48.208;-1.518;2024-03-17T22:53:42;21.10;;;20.00;;
31808;SDS011;18379;48.208;-1.518;2024-03-17T22:58:44;22.47;;;21.17;;
31808;SDS011;18379;48.208;-1.518;2024-03-17T23:03:46;21.67;;;20.47;;
31808;SDS011;18379;48.208;-1.518;2024-03-17T23:08:46;21.40;;;20.30;;
31808;SDS011;18379;48.208;-1.518;2024-03-17T23:13:48;22.00;;;20.70;;
31808;SDS011;18379;48.208;-1.518;2024-03-17T23:18:48;22.50;;;21.10;;
31808;SDS011;18379;48.208;-1.518;2024-03-17T23:23:49;23.00;;;21.60;;
31808;SDS011;18379;48.208;-1.518;2024-03-17T23:28:50;23.60;;;22.30;;
31808;SDS011;18379;48.208;-1.518;2024-03-17T23:33:50;22.63;;;21.23;;
31808;SDS011;18379;48.208;-1.518;2024-03-17T23:38:51;22.30;;;21.00;;
31808;SDS011;18379;48.208;-1.518;2024-03-17T23:43:53;22.03;;;20.73;;
31808;SDS011;18379;48.208;-1.518;2024-03-17T23:48:53;22.27;;;21.07;;
31808;SDS011;18379;48.208;-1.518;2024-03-17T23:53:54;21.70;;;20.63;;
31808;SDS011;18379;48.208;-1.518;2024-03-17T23:58:55;22.73;;;21.23;;
